sensor_id;sensor_type;location;lat;lon;timestamp;P1;durP1;ratioP1;P2;durP2;ratioP2
10523;SDS011;5310;48.638;9.060;2022-12-29T00:00:06;0.90;;;0.90;;
10523;SDS011;5310;48.638;9.060;2022-12-29T00:02:32;0.90;;;0.90;;
10523;SDS011;5310;48.638;9.060;2022-12-29T00:04:58;0.90;;;0.90;;
10523;SDS011;5310;48.638;9.060;2022-12-29T00:07:24;0.90;;;0.90;;
10523;SDS011;5310;48.638;9.060;2022-12-29T00:09:50;0.80;;;0.80;;
10523;SDS011;5310;48.638;9.060;2022-12-29T00:12:16;0.80;;;0.80;;
10523;SDS011;5310;48.638;9.060;2022-12-29T00:14:42;0.80;;;0.80;;
10523;SDS011;5310;48.638;9.060;2022-12-29T00:17:26;0.80;;;0.80;;
10523;SDS011;5310;48.638;9.060;2022-12-29T00:19:52;0.90;;;0.90;;
10523;SDS011;5310;48.638;9.060;2022-12-29T00:22:37;0.90;;;0.90;;
10523;SDS011;5310;48.638;9.060;2022-12-29T00:25:21;0.80;;;0.80;;
10523;SDS011;5310;48.638;9.060;2022-12-29T00:28:07;0.90;;;0.90;;
10523;SDS011;5310;48.638;9.060;2022-12-29T00:30:52;0.80;;;0.80;;
10523;SDS011;5310;48.638;9.060;2022-12-29T00:33:37;0.90;;;0.90;;
10523;SDS011;5310;48.638;9.060;2022-12-29T00:36:23;0.90;;;0.90;;
10523;SDS011;5310;48.638;9.060;2022-12-29T00:38:57;0.90;;;0.90;;
10523;SDS011;5310;48.638;9.060;2022-12-29T00:41:43;0.83;;;0.83;;
10523;SDS011;5310;48.638;9.060;2022-12-29T00:44:27;0.80;;;0.80;;
10523;SDS011;5310;48.638;9.060;2022-12-29T00:46:53;0.90;;;0.90;;
10523;SDS011;5310;48.638;9.060;2022-12-29T00:49:20;0.80;;;0.80;;
10523;SDS011;5310;48.638;9.060;2022-12-29T00:52:02;0.80;;;0.80;;
10523;SDS011;5310;48.638;9.060;2022-12-29T00:54:30;0.90;;;0.90;;
10523;SDS011;5310;48.638;9.060;2022-12-29T00:56:57;0.90;;;0.90;;
10523;SDS011;5310;48.638;9.060;2022-12-29T00:59:23;0.90;;;0.90;;
10523;SDS011;5310;48.638;9.060;2022-12-29T01:01:50;0.83;;;0.83;;
10523;SDS011;5310;48.638;9.060;2022-12-29T01:04:17;0.83;;;0.83;;
10523;SDS011;5310;48.638;9.060;2022-12-29T01:06:43;0.90;;;0.90;;
10523;SDS011;5310;48.638;9.060;2022-12-29T01:09:09;0.80;;;0.80;;
10523;SDS011;5310;48.638;9.060;2022-12-29T01:11:54;0.90;;;0.90;;
10523;SDS011;5310;48.638;9.060;2022-12-29T01:14:20;0.90;;;0.90;;
10523;SDS011;5310;48.638;9.060;2022-12-29T01:16:47;0.97;;;0.97;;
10523;SDS011;5310;48.638;9.060;2022-12-29T01:19:13;0.80;;;0.80;;
10523;SDS011;5310;48.638;9.060;2022-12-29T01:21:39;0.90;;;0.90;;
10523;SDS011;5310;48.638;9.060;2022-12-29T01:24:05;0.80;;;0.80;;
10523;SDS011;5310;48.638;9.060;2022-12-29T01:26:31;0.80;;;0.80;;
10523;SDS011;5310;48.638;9.060;2022-12-29T01:28:57;0.77;;;0.77;;
10523;SDS011;5310;48.638;9.060;2022-12-29T01:31:23;0.80;;;0.80;;
10523;SDS011;5310;48.638;9.060;2022-12-29T01:33:49;0.80;;;0.80;;
10523;SDS011;5310;48.638;9.060;2022-12-29T01:36:16;0.80;;;0.80;;
10523;SDS011;5310;48.638;9.060;2022-12-29T01:38:42;0.80;;;0.80;;
10523;SDS011;5310;48.638;9.060;2022-12-29T01:41:09;0.90;;;0.90;;
10523;SDS011;5310;48.638;9.060;2022-12-29T01:43:58;0.90;;;0.90;;
10523;SDS011;5310;48.638;9.060;2022-12-29T01:46:26;0.90;;;0.90;;
10523;SDS011;5310;48.638;9.060;2022-12-29T01:48:55;0.90;;;0.90;;
10523;SDS011;5310;48.638;9.060;2022-12-29T01:51:26;0.80;;;0.80;;
10523;SDS011;5310;48.638;9.060;2022-12-29T01:53:55;0.90;;;0.90;;
10523;SDS011;5310;48.638;9.060;2022-12-29T01:56:23;0.80;;;0.80;;
10523;SDS011;5310;48.638;9.060;2022-12-29T01:58:52;0.70;;;0.70;;
10523;SDS011;5310;48.638;9.060;2022-12-29T02:01:23;0.80;;;0.80;;
10523;SDS011;5310;48.638;9.060;2022-12-29T02:03:48;0.80;;;0.80;;
10523;SDS011;5310;48.638;9.060;2022-12-29T02:06:22;0.80;;;0.80;;
10523;SDS011;5310;48.638;9.060;2022-12-29T02:08:52;0.80;;;0.80;;
10523;SDS011;5310;48.638;9.060;2022-12-29T02:11:19;0.80;;;0.80;;
10523;SDS011;5310;48.638;9.060;2022-12-29T02:13:48;0.87;;;0.87;;
10523;SDS011;5310;48.638;9.060;2022-12-29T02:24:36;0.90;;;0.90;;
10523;SDS011;5310;48.638;9.060;2022-12-29T02:27:14;0.80;;;0.80;;
10523;SDS011;5310;48.638;9.060;2022-12-29T02:32:28;0.80;;;0.80;;
10523;SDS011;5310;48.638;9.060;2022-12-29T02:37:55;0.70;;;0.70;;
10523;SDS011;5310;48.638;9.060;2022-12-29T02:40:25;0.80;;;0.80;;
10523;SDS011;5310;48.638;9.060;2022-12-29T02:51:09;0.70;;;0.70;;
10523;SDS011;5310;48.638;9.060;2022-12-29T02:53:38;0.80;;;0.80;;
10523;SDS011;5310;48.638;9.060;2022-12-29T02:56:23;0.90;;;0.90;;
10523;SDS011;5310;48.638;9.060;2022-12-29T02:58:49;0.87;;;0.87;;
10523;SDS011;5310;48.638;9.060;2022-12-29T03:01:29;0.80;;;0.80;;
10523;SDS011;5310;48.638;9.060;2022-12-29T03:04:09;0.80;;;0.80;;
10523;SDS011;5310;48.638;9.060;2022-12-29T03:06:56;0.70;;;0.70;;
10523;SDS011;5310;48.638;9.060;2022-12-29T03:09:40;0.70;;;0.70;;
10523;SDS011;5310;48.638;9.060;2022-12-29T03:12:32;0.70;;;0.70;;
10523;SDS011;5310;48.638;9.060;2022-12-29T03:15:24;0.80;;;0.80;;
10523;SDS011;5310;48.638;9.060;2022-12-29T03:18:13;0.80;;;0.80;;
10523;SDS011;5310;48.638;9.060;2022-12-29T03:20:47;0.70;;;0.70;;
10523;SDS011;5310;48.638;9.060;2022-12-29T03:23:15;0.90;;;0.90;;
10523;SDS011;5310;48.638;9.060;2022-12-29T03:25:43;0.80;;;0.80;;
10523;SDS011;5310;48.638;9.060;2022-12-29T03:28:30;0.80;;;0.80;;
10523;SDS011;5310;48.638;9.060;2022-12-29T03:30:57;0.80;;;0.80;;
10523;SDS011;5310;48.638;9.060;2022-12-29T03:33:25;0.80;;;0.80;;
10523;SDS011;5310;48.638;9.060;2022-12-29T03:35:54;0.80;;;0.80;;
10523;SDS011;5310;48.638;9.060;2022-12-29T03:40:55;0.70;;;0.70;;
10523;SDS011;5310;48.638;9.060;2022-12-29T03:43:22;0.70;;;0.70;;
10523;SDS011;5310;48.638;9.060;2022-12-29T03:45:48;0.90;;;0.90;;
10523;SDS011;5310;48.638;9.060;2022-12-29T03:48:14;0.80;;;0.80;;
10523;SDS011;5310;48.638;9.060;2022-12-29T03:50:40;0.80;;;0.80;;
10523;SDS011;5310;48.638;9.060;2022-12-29T03:53:06;0.70;;;0.70;;
10523;SDS011;5310;48.638;9.060;2022-12-29T03:55:31;0.90;;;0.90;;
10523;SDS011;5310;48.638;9.060;2022-12-29T03:57:58;0.90;;;0.90;;
10523;SDS011;5310;48.638;9.060;2022-12-29T04:00:23;0.80;;;0.80;;
10523;SDS011;5310;48.638;9.060;2022-12-29T04:02:49;0.83;;;0.83;;
10523;SDS011;5310;48.638;9.060;2022-12-29T04:05:15;0.90;;;0.90;;
10523;SDS011;5310;48.638;9.060;2022-12-29T04:07:41;0.80;;;0.80;;
10523;SDS011;5310;48.638;9.060;2022-12-29T04:10:07;0.90;;;0.90;;
10523;SDS011;5310;48.638;9.060;2022-12-29T04:12:33;0.90;;;0.90;;
10523;SDS011;5310;48.638;9.060;2022-12-29T04:14:59;0.80;;;0.80;;
10523;SDS011;5310;48.638;9.060;2022-12-29T04:17:25;0.70;;;0.70;;
10523;SDS011;5310;48.638;9.060;2022-12-29T04:19:51;0.90;;;0.90;;
10523;SDS011;5310;48.638;9.060;2022-12-29T04:22:37;0.80;;;0.80;;
10523;SDS011;5310;48.638;9.060;2022-12-29T04:25:03;0.80;;;0.80;;
10523;SDS011;5310;48.638;9.060;2022-12-29T04:27:29;0.90;;;0.90;;
10523;SDS011;5310;48.638;9.060;2022-12-29T04:29:55;0.90;;;0.90;;
10523;SDS011;5310;48.638;9.060;2022-12-29T04:32:21;0.80;;;0.80;;
10523;SDS011;5310;48.638;9.060;2022-12-29T04:34:47;1.00;;;1.00;;
10523;SDS011;5310;48.638;9.060;2022-12-29T04:37:13;0.80;;;0.80;;
10523;SDS011;5310;48.638;9.060;2022-12-29T04:39:39;0.90;;;0.90;;
10523;SDS011;5310;48.638;9.060;2022-12-29T04:42:04;0.90;;;0.90;;
10523;SDS011;5310;48.638;9.060;2022-12-29T04:44:30;0.80;;;0.80;;
10523;SDS011;5310;48.638;9.060;2022-12-29T04:46:56;0.90;;;0.90;;
10523;SDS011;5310;48.638;9.060;2022-12-29T04:49:22;0.80;;;0.80;;
10523;SDS011;5310;48.638;9.060;2022-12-29T04:51:48;1.00;;;1.00;;
10523;SDS011;5310;48.638;9.060;2022-12-29T04:54:14;0.80;;;0.80;;
10523;SDS011;5310;48.638;9.060;2022-12-29T04:56:40;0.90;;;0.90;;
10523;SDS011;5310;48.638;9.060;2022-12-29T04:59:06;0.83;;;0.83;;
10523;SDS011;5310;48.638;9.060;2022-12-29T05:01:32;0.90;;;0.90;;
10523;SDS011;5310;48.638;9.060;2022-12-29T05:03:58;0.83;;;0.83;;
10523;SDS011;5310;48.638;9.060;2022-12-29T05:06:23;0.80;;;0.80;;
10523;SDS011;5310;48.638;9.060;2022-12-29T05:08:49;0.83;;;0.83;;
10523;SDS011;5310;48.638;9.060;2022-12-29T05:11:15;0.90;;;0.90;;
10523;SDS011;5310;48.638;9.060;2022-12-29T05:13:44;0.80;;;0.80;;
10523;SDS011;5310;48.638;9.060;2022-12-29T05:16:10;0.80;;;0.80;;
10523;SDS011;5310;48.638;9.060;2022-12-29T05:18:36;0.80;;;0.80;;
10523;SDS011;5310;48.638;9.060;2022-12-29T05:21:02;0.80;;;0.80;;
10523;SDS011;5310;48.638;9.060;2022-12-29T05:23:28;0.80;;;0.80;;
10523;SDS011;5310;48.638;9.060;2022-12-29T05:25:54;0.80;;;0.80;;
10523;SDS011;5310;48.638;9.060;2022-12-29T05:28:20;0.80;;;0.80;;
10523;SDS011;5310;48.638;9.060;2022-12-29T05:30:50;0.80;;;0.80;;
10523;SDS011;5310;48.638;9.060;2022-12-29T05:33:17;0.80;;;0.80;;
10523;SDS011;5310;48.638;9.060;2022-12-29T05:35:43;0.80;;;0.80;;
10523;SDS011;5310;48.638;9.060;2022-12-29T05:38:09;0.80;;;0.80;;
10523;SDS011;5310;48.638;9.060;2022-12-29T05:40:35;0.80;;;0.80;;
10523;SDS011;5310;48.638;9.060;2022-12-29T05:43:01;0.80;;;0.80;;
10523;SDS011;5310;48.638;9.060;2022-12-29T05:45:27;0.70;;;0.70;;
10523;SDS011;5310;48.638;9.060;2022-12-29T05:47:53;0.80;;;0.80;;
10523;SDS011;5310;48.638;9.060;2022-12-29T05:50:19;0.90;;;0.90;;
10523;SDS011;5310;48.638;9.060;2022-12-29T05:52:45;0.80;;;0.80;;
10523;SDS011;5310;48.638;9.060;2022-12-29T05:55:11;0.90;;;0.90;;
10523;SDS011;5310;48.638;9.060;2022-12-29T05:57:36;0.80;;;0.80;;
10523;SDS011;5310;48.638;9.060;2022-12-29T06:00:03;0.90;;;0.90;;
10523;SDS011;5310;48.638;9.060;2022-12-29T06:02:29;0.80;;;0.80;;
10523;SDS011;5310;48.638;9.060;2022-12-29T06:04:55;0.80;;;0.80;;
10523;SDS011;5310;48.638;9.060;2022-12-29T06:07:21;0.80;;;0.80;;
10523;SDS011;5310;48.638;9.060;2022-12-29T06:09:47;0.80;;;0.80;;
10523;SDS011;5310;48.638;9.060;2022-12-29T06:12:14;0.90;;;0.90;;
10523;SDS011;5310;48.638;9.060;2022-12-29T06:14:41;0.80;;;0.80;;
10523;SDS011;5310;48.638;9.060;2022-12-29T06:17:07;0.80;;;0.80;;
10523;SDS011;5310;48.638;9.060;2022-12-29T06:19:33;0.70;;;0.70;;
10523;SDS011;5310;48.638;9.060;2022-12-29T06:21:59;0.80;;;0.80;;
10523;SDS011;5310;48.638;9.060;2022-12-29T06:24:25;0.90;;;0.90;;
10523;SDS011;5310;48.638;9.060;2022-12-29T06:26:51;0.80;;;0.80;;
10523;SDS011;5310;48.638;9.060;2022-12-29T06:29:16;0.90;;;0.90;;
10523;SDS011;5310;48.638;9.060;2022-12-29T06:31:44;0.80;;;0.80;;
10523;SDS011;5310;48.638;9.060;2022-12-29T06:34:10;0.90;;;0.90;;
10523;SDS011;5310;48.638;9.060;2022-12-29T06:36:37;0.90;;;0.90;;
10523;SDS011;5310;48.638;9.060;2022-12-29T06:39:02;0.90;;;0.90;;
10523;SDS011;5310;48.638;9.060;2022-12-29T06:41:28;0.80;;;0.80;;
10523;SDS011;5310;48.638;9.060;2022-12-29T06:43:54;0.80;;;0.80;;
10523;SDS011;5310;48.638;9.060;2022-12-29T06:46:20;0.80;;;0.80;;
10523;SDS011;5310;48.638;9.060;2022-12-29T06:48:46;0.80;;;0.80;;
10523;SDS011;5310;48.638;9.060;2022-12-29T06:51:12;0.80;;;0.80;;
10523;SDS011;5310;48.638;9.060;2022-12-29T06:53:38;0.80;;;0.80;;
10523;SDS011;5310;48.638;9.060;2022-12-29T06:56:04;0.80;;;0.80;;
10523;SDS011;5310;48.638;9.060;2022-12-29T06:58:30;0.90;;;0.90;;
10523;SDS011;5310;48.638;9.060;2022-12-29T07:00:56;0.80;;;0.80;;
10523;SDS011;5310;48.638;9.060;2022-12-29T07:03:22;0.80;;;0.80;;
10523;SDS011;5310;48.638;9.060;2022-12-29T07:05:48;0.80;;;0.80;;
10523;SDS011;5310;48.638;9.060;2022-12-29T07:08:14;0.80;;;0.80;;
10523;SDS011;5310;48.638;9.060;2022-12-29T07:10:40;0.80;;;0.80;;
10523;SDS011;5310;48.638;9.060;2022-12-29T07:13:06;0.80;;;0.80;;
10523;SDS011;5310;48.638;9.060;2022-12-29T07:15:32;0.80;;;0.80;;
10523;SDS011;5310;48.638;9.060;2022-12-29T07:17:58;0.90;;;0.90;;
10523;SDS011;5310;48.638;9.060;2022-12-29T07:20:24;0.90;;;0.90;;
10523;SDS011;5310;48.638;9.060;2022-12-29T07:22:50;0.80;;;0.80;;
10523;SDS011;5310;48.638;9.060;2022-12-29T07:25:16;0.80;;;0.80;;
10523;SDS011;5310;48.638;9.060;2022-12-29T07:27:42;0.83;;;0.83;;
10523;SDS011;5310;48.638;9.060;2022-12-29T07:30:08;0.80;;;0.80;;
10523;SDS011;5310;48.638;9.060;2022-12-29T07:32:34;0.80;;;0.80;;
10523;SDS011;5310;48.638;9.060;2022-12-29T07:35:00;0.70;;;0.70;;
10523;SDS011;5310;48.638;9.060;2022-12-29T07:37:26;0.80;;;0.80;;
10523;SDS011;5310;48.638;9.060;2022-12-29T07:39:52;0.80;;;0.80;;
10523;SDS011;5310;48.638;9.060;2022-12-29T07:42:18;0.73;;;0.73;;
10523;SDS011;5310;48.638;9.060;2022-12-29T07:44:44;0.90;;;0.90;;
10523;SDS011;5310;48.638;9.060;2022-12-29T07:47:10;0.90;;;0.90;;
10523;SDS011;5310;48.638;9.060;2022-12-29T07:49:36;0.80;;;0.80;;
10523;SDS011;5310;48.638;9.060;2022-12-29T07:52:02;0.90;;;0.90;;
10523;SDS011;5310;48.638;9.060;2022-12-29T07:54:28;0.90;;;0.90;;
10523;SDS011;5310;48.638;9.060;2022-12-29T07:56:54;0.80;;;0.80;;
10523;SDS011;5310;48.638;9.060;2022-12-29T07:59:20;0.90;;;0.90;;
10523;SDS011;5310;48.638;9.060;2022-12-29T08:01:46;0.70;;;0.70;;
10523;SDS011;5310;48.638;9.060;2022-12-29T08:04:12;0.80;;;0.80;;
10523;SDS011;5310;48.638;9.060;2022-12-29T08:06:38;0.90;;;0.90;;
10523;SDS011;5310;48.638;9.060;2022-12-29T08:09:04;0.77;;;0.77;;
10523;SDS011;5310;48.638;9.060;2022-12-29T08:11:30;0.70;;;0.70;;
10523;SDS011;5310;48.638;9.060;2022-12-29T08:13:56;0.70;;;0.70;;
10523;SDS011;5310;48.638;9.060;2022-12-29T08:16:22;0.70;;;0.70;;
10523;SDS011;5310;48.638;9.060;2022-12-29T08:18:48;0.73;;;0.73;;
10523;SDS011;5310;48.638;9.060;2022-12-29T08:21:13;0.70;;;0.70;;
10523;SDS011;5310;48.638;9.060;2022-12-29T08:23:39;0.70;;;0.70;;
10523;SDS011;5310;48.638;9.060;2022-12-29T08:26:05;0.70;;;0.70;;
10523;SDS011;5310;48.638;9.060;2022-12-29T08:28:32;0.83;;;0.83;;
10523;SDS011;5310;48.638;9.060;2022-12-29T08:30:58;0.70;;;0.70;;
10523;SDS011;5310;48.638;9.060;2022-12-29T08:33:25;0.70;;;0.70;;
10523;SDS011;5310;48.638;9.060;2022-12-29T08:35:52;0.70;;;0.70;;
10523;SDS011;5310;48.638;9.060;2022-12-29T08:38:17;0.70;;;0.70;;
10523;SDS011;5310;48.638;9.060;2022-12-29T08:40:43;0.70;;;0.70;;
10523;SDS011;5310;48.638;9.060;2022-12-29T08:43:09;0.73;;;0.73;;
10523;SDS011;5310;48.638;9.060;2022-12-29T08:45:35;0.80;;;0.80;;
10523;SDS011;5310;48.638;9.060;2022-12-29T08:48:01;0.70;;;0.70;;
10523;SDS011;5310;48.638;9.060;2022-12-29T08:50:27;0.70;;;0.70;;
10523;SDS011;5310;48.638;9.060;2022-12-29T08:52:53;0.70;;;0.70;;
10523;SDS011;5310;48.638;9.060;2022-12-29T08:55:19;0.50;;;0.50;;
10523;SDS011;5310;48.638;9.060;2022-12-29T08:57:45;0.60;;;0.60;;
10523;SDS011;5310;48.638;9.060;2022-12-29T09:00:11;0.70;;;0.70;;
10523;SDS011;5310;48.638;9.060;2022-12-29T09:02:37;0.70;;;0.70;;
10523;SDS011;5310;48.638;9.060;2022-12-29T09:05:03;0.70;;;0.70;;
10523;SDS011;5310;48.638;9.060;2022-12-29T09:07:29;0.70;;;0.70;;
10523;SDS011;5310;48.638;9.060;2022-12-29T09:09:55;0.70;;;0.70;;
10523;SDS011;5310;48.638;9.060;2022-12-29T09:12:21;0.70;;;0.70;;
10523;SDS011;5310;48.638;9.060;2022-12-29T09:14:47;0.70;;;0.70;;
10523;SDS011;5310;48.638;9.060;2022-12-29T09:17:13;0.70;;;0.70;;
10523;SDS011;5310;48.638;9.060;2022-12-29T09:19:57;0.70;;;0.70;;
10523;SDS011;5310;48.638;9.060;2022-12-29T09:22:23;0.70;;;0.70;;
10523;SDS011;5310;48.638;9.060;2022-12-29T09:24:49;0.70;;;0.70;;
10523;SDS011;5310;48.638;9.060;2022-12-29T09:27:15;0.70;;;0.70;;
10523;SDS011;5310;48.638;9.060;2022-12-29T09:29:40;0.70;;;0.70;;
10523;SDS011;5310;48.638;9.060;2022-12-29T09:32:06;0.70;;;0.70;;
10523;SDS011;5310;48.638;9.060;2022-12-29T09:34:32;0.70;;;0.70;;
10523;SDS011;5310;48.638;9.060;2022-12-29T09:36:58;0.60;;;0.60;;
10523;SDS011;5310;48.638;9.060;2022-12-29T09:39:24;0.77;;;0.77;;
10523;SDS011;5310;48.638;9.060;2022-12-29T09:42:01;0.60;;;0.60;;
10523;SDS011;5310;48.638;9.060;2022-12-29T09:44:33;0.70;;;0.70;;
10523;SDS011;5310;48.638;9.060;2022-12-29T09:47:08;0.45;;;0.45;;
10523;SDS011;5310;48.638;9.060;2022-12-29T09:49:40;0.60;;;0.60;;
10523;SDS011;5310;48.638;9.060;2022-12-29T09:52:21;0.50;;;0.50;;
10523;SDS011;5310;48.638;9.060;2022-12-29T09:54:58;0.60;;;0.60;;
10523;SDS011;5310;48.638;9.060;2022-12-29T09:57:28;0.60;;;0.60;;
10523;SDS011;5310;48.638;9.060;2022-12-29T10:00:15;0.70;;;0.70;;
10523;SDS011;5310;48.638;9.060;2022-12-29T10:02:44;0.60;;;0.60;;
10523;SDS011;5310;48.638;9.060;2022-12-29T10:05:23;0.70;;;0.70;;
10523;SDS011;5310;48.638;9.060;2022-12-29T10:10:43;0.70;;;0.70;;
10523;SDS011;5310;48.638;9.060;2022-12-29T10:16:01;0.70;;;0.70;;
10523;SDS011;5310;48.638;9.060;2022-12-29T10:23:44;0.70;;;0.70;;
10523;SDS011;5310;48.638;9.060;2022-12-29T10:26:12;0.70;;;0.70;;
10523;SDS011;5310;48.638;9.060;2022-12-29T10:28:40;0.80;;;0.80;;
10523;SDS011;5310;48.638;9.060;2022-12-29T10:31:14;0.80;;;0.80;;
10523;SDS011;5310;48.638;9.060;2022-12-29T10:33:44;0.70;;;0.70;;
10523;SDS011;5310;48.638;9.060;2022-12-29T10:36:13;0.60;;;0.60;;
10523;SDS011;5310;48.638;9.060;2022-12-29T10:41:30;0.70;;;0.70;;
10523;SDS011;5310;48.638;9.060;2022-12-29T10:44:00;0.60;;;0.60;;
10523;SDS011;5310;48.638;9.060;2022-12-29T10:46:29;0.60;;;0.60;;
10523;SDS011;5310;48.638;9.060;2022-12-29T10:48:58;0.70;;;0.70;;
10523;SDS011;5310;48.638;9.060;2022-12-29T10:51:24;0.70;;;0.70;;
10523;SDS011;5310;48.638;9.060;2022-12-29T10:53:59;0.70;;;0.70;;
10523;SDS011;5310;48.638;9.060;2022-12-29T10:56:48;0.70;;;0.70;;
10523;SDS011;5310;48.638;9.060;2022-12-29T11:01:56;0.60;;;0.60;;
10523;SDS011;5310;48.638;9.060;2022-12-29T11:04:40;0.67;;;0.67;;
10523;SDS011;5310;48.638;9.060;2022-12-29T11:07:26;0.70;;;0.70;;
10523;SDS011;5310;48.638;9.060;2022-12-29T11:09:53;0.67;;;0.67;;
10523;SDS011;5310;48.638;9.060;2022-12-29T11:12:20;0.67;;;0.67;;
10523;SDS011;5310;48.638;9.060;2022-12-29T11:14:47;0.60;;;0.60;;
10523;SDS011;5310;48.638;9.060;2022-12-29T11:17:25;0.70;;;0.70;;
10523;SDS011;5310;48.638;9.060;2022-12-29T11:19:51;0.40;;;0.40;;
10523;SDS011;5310;48.638;9.060;2022-12-29T11:22:29;0.70;;;0.70;;
10523;SDS011;5310;48.638;9.060;2022-12-29T11:24:55;0.60;;;0.60;;
10523;SDS011;5310;48.638;9.060;2022-12-29T11:27:31;0.60;;;0.60;;
10523;SDS011;5310;48.638;9.060;2022-12-29T11:29:57;0.60;;;0.60;;
10523;SDS011;5310;48.638;9.060;2022-12-29T11:32:27;0.60;;;0.60;;
10523;SDS011;5310;48.638;9.060;2022-12-29T11:34:57;0.43;;;0.43;;
10523;SDS011;5310;48.638;9.060;2022-12-29T11:37:31;0.60;;;0.60;;
10523;SDS011;5310;48.638;9.060;2022-12-29T11:40:03;0.53;;;0.53;;
10523;SDS011;5310;48.638;9.060;2022-12-29T11:42:40;0.60;;;0.60;;
10523;SDS011;5310;48.638;9.060;2022-12-29T11:45:18;0.60;;;0.60;;
10523;SDS011;5310;48.638;9.060;2022-12-29T11:47:49;0.60;;;0.60;;
10523;SDS011;5310;48.638;9.060;2022-12-29T11:50:20;0.60;;;0.60;;
10523;SDS011;5310;48.638;9.060;2022-12-29T11:52:48;0.60;;;0.60;;
10523;SDS011;5310;48.638;9.060;2022-12-29T11:55:17;0.60;;;0.60;;
10523;SDS011;5310;48.638;9.060;2022-12-29T11:57:46;0.60;;;0.60;;
10523;SDS011;5310;48.638;9.060;2022-12-29T12:00:17;0.70;;;0.70;;
10523;SDS011;5310;48.638;9.060;2022-12-29T12:02:45;0.50;;;0.50;;
10523;SDS011;5310;48.638;9.060;2022-12-29T12:07:45;0.60;;;0.60;;
10523;SDS011;5310;48.638;9.060;2022-12-29T12:10:25;0.60;;;0.60;;
10523;SDS011;5310;48.638;9.060;2022-12-29T12:13:14;0.70;;;0.70;;
10523;SDS011;5310;48.638;9.060;2022-12-29T12:15:54;0.60;;;0.60;;
10523;SDS011;5310;48.638;9.060;2022-12-29T12:21:04;0.40;;;0.40;;
10523;SDS011;5310;48.638;9.060;2022-12-29T12:26:18;0.70;;;0.70;;
10523;SDS011;5310;48.638;9.060;2022-12-29T12:28:48;0.60;;;0.60;;
10523;SDS011;5310;48.638;9.060;2022-12-29T12:31:17;0.60;;;0.60;;
10523;SDS011;5310;48.638;9.060;2022-12-29T12:33:49;0.70;;;0.70;;
10523;SDS011;5310;48.638;9.060;2022-12-29T12:39:11;0.70;;;0.70;;
10523;SDS011;5310;48.638;9.060;2022-12-29T12:44:16;0.70;;;0.70;;
10523;SDS011;5310;48.638;9.060;2022-12-29T12:52:17;0.60;;;0.60;;
10523;SDS011;5310;48.638;9.060;2022-12-29T13:00:08;0.60;;;0.60;;
10523;SDS011;5310;48.638;9.060;2022-12-29T13:07:48;0.70;;;0.70;;
10523;SDS011;5310;48.638;9.060;2022-12-29T13:10:51;0.70;;;0.70;;
10523;SDS011;5310;48.638;9.060;2022-12-29T13:13:30;0.70;;;0.70;;
10523;SDS011;5310;48.638;9.060;2022-12-29T13:26:03;0.80;;;0.80;;
10523;SDS011;5310;48.638;9.060;2022-12-29T13:30:59;0.70;;;0.70;;
10523;SDS011;5310;48.638;9.060;2022-12-29T13:36:37;0.80;;;0.80;;
10523;SDS011;5310;48.638;9.060;2022-12-29T13:39:13;0.70;;;0.70;;
10523;SDS011;5310;48.638;9.060;2022-12-29T13:41:51;0.80;;;0.80;;
10523;SDS011;5310;48.638;9.060;2022-12-29T13:44:19;0.70;;;0.70;;
10523;SDS011;5310;48.638;9.060;2022-12-29T13:46:47;0.80;;;0.80;;
10523;SDS011;5310;48.638;9.060;2022-12-29T13:49:16;0.70;;;0.70;;
10523;SDS011;5310;48.638;9.060;2022-12-29T13:51:47;0.70;;;0.70;;
10523;SDS011;5310;48.638;9.060;2022-12-29T13:54:18;0.70;;;0.70;;
10523;SDS011;5310;48.638;9.060;2022-12-29T13:57:08;0.70;;;0.70;;
10523;SDS011;5310;48.638;9.060;2022-12-29T13:59:50;0.60;;;0.60;;
10523;SDS011;5310;48.638;9.060;2022-12-29T14:02:37;0.70;;;0.70;;
10523;SDS011;5310;48.638;9.060;2022-12-29T14:07:43;0.70;;;0.70;;
10523;SDS011;5310;48.638;9.060;2022-12-29T14:13:02;0.70;;;0.70;;
10523;SDS011;5310;48.638;9.060;2022-12-29T14:15:34;0.70;;;0.70;;
10523;SDS011;5310;48.638;9.060;2022-12-29T14:28:34;0.70;;;0.70;;
10523;SDS011;5310;48.638;9.060;2022-12-29T14:31:04;0.70;;;0.70;;
10523;SDS011;5310;48.638;9.060;2022-12-29T14:36:41;0.50;;;0.50;;
10523;SDS011;5310;48.638;9.060;2022-12-29T14:42:11;0.80;;;0.80;;
10523;SDS011;5310;48.638;9.060;2022-12-29T14:52:45;0.70;;;0.70;;
10523;SDS011;5310;48.638;9.060;2022-12-29T14:57:41;0.70;;;0.70;;
10523;SDS011;5310;48.638;9.060;2022-12-29T15:00:29;0.70;;;0.70;;
10523;SDS011;5310;48.638;9.060;2022-12-29T15:03:07;0.70;;;0.70;;
10523;SDS011;5310;48.638;9.060;2022-12-29T15:05:53;0.70;;;0.70;;
10523;SDS011;5310;48.638;9.060;2022-12-29T15:08:32;0.80;;;0.80;;
10523;SDS011;5310;48.638;9.060;2022-12-29T15:14:03;0.77;;;0.77;;
10523;SDS011;5310;48.638;9.060;2022-12-29T15:16:53;0.60;;;0.60;;
10523;SDS011;5310;48.638;9.060;2022-12-29T15:19:23;0.80;;;0.80;;
10523;SDS011;5310;48.638;9.060;2022-12-29T15:21:49;0.70;;;0.70;;
10523;SDS011;5310;48.638;9.060;2022-12-29T15:24:15;0.73;;;0.73;;
10523;SDS011;5310;48.638;9.060;2022-12-29T15:26:42;0.80;;;0.80;;
10523;SDS011;5310;48.638;9.060;2022-12-29T15:32:01;0.80;;;0.80;;
10523;SDS011;5310;48.638;9.060;2022-12-29T15:34:35;0.70;;;0.70;;
10523;SDS011;5310;48.638;9.060;2022-12-29T15:37:06;0.80;;;0.80;;
10523;SDS011;5310;48.638;9.060;2022-12-29T15:39:32;0.80;;;0.80;;
10523;SDS011;5310;48.638;9.060;2022-12-29T15:44:36;0.70;;;0.70;;
10523;SDS011;5310;48.638;9.060;2022-12-29T15:47:04;0.70;;;0.70;;
10523;SDS011;5310;48.638;9.060;2022-12-29T15:49:31;0.70;;;0.70;;
10523;SDS011;5310;48.638;9.060;2022-12-29T15:51:58;0.70;;;0.70;;
10523;SDS011;5310;48.638;9.060;2022-12-29T15:54:24;0.70;;;0.70;;
10523;SDS011;5310;48.638;9.060;2022-12-29T15:56:52;0.70;;;0.70;;
10523;SDS011;5310;48.638;9.060;2022-12-29T15:59:28;0.70;;;0.70;;
10523;SDS011;5310;48.638;9.060;2022-12-29T16:01:55;0.80;;;0.80;;
10523;SDS011;5310;48.638;9.060;2022-12-29T16:04:21;0.80;;;0.80;;
10523;SDS011;5310;48.638;9.060;2022-12-29T16:06:57;0.70;;;0.70;;
10523;SDS011;5310;48.638;9.060;2022-12-29T16:12:01;0.70;;;0.70;;
10523;SDS011;5310;48.638;9.060;2022-12-29T16:14:32;0.80;;;0.80;;
10523;SDS011;5310;48.638;9.060;2022-12-29T16:16:59;0.77;;;0.77;;
10523;SDS011;5310;48.638;9.060;2022-12-29T16:19:35;0.70;;;0.70;;
10523;SDS011;5310;48.638;9.060;2022-12-29T16:22:03;0.70;;;0.70;;
10523;SDS011;5310;48.638;9.060;2022-12-29T16:24:36;0.70;;;0.70;;
10523;SDS011;5310;48.638;9.060;2022-12-29T16:27:14;0.60;;;0.60;;
10523;SDS011;5310;48.638;9.060;2022-12-29T16:29:43;0.70;;;0.70;;
10523;SDS011;5310;48.638;9.060;2022-12-29T16:32:22;0.70;;;0.70;;
10523;SDS011;5310;48.638;9.060;2022-12-29T16:34:49;0.70;;;0.70;;
10523;SDS011;5310;48.638;9.060;2022-12-29T16:37:29;0.60;;;0.60;;
10523;SDS011;5310;48.638;9.060;2022-12-29T16:40:13;0.70;;;0.70;;
10523;SDS011;5310;48.638;9.060;2022-12-29T16:48:09;0.77;;;0.77;;
10523;SDS011;5310;48.638;9.060;2022-12-29T16:50:43;0.70;;;0.70;;
10523;SDS011;5310;48.638;9.060;2022-12-29T16:55:49;0.70;;;0.70;;
10523;SDS011;5310;48.638;9.060;2022-12-29T16:58:18;0.70;;;0.70;;
10523;SDS011;5310;48.638;9.060;2022-12-29T17:00:47;0.63;;;0.63;;
10523;SDS011;5310;48.638;9.060;2022-12-29T17:03:13;0.60;;;0.60;;
10523;SDS011;5310;48.638;9.060;2022-12-29T17:05:40;0.70;;;0.70;;
10523;SDS011;5310;48.638;9.060;2022-12-29T17:08:19;0.80;;;0.80;;
10523;SDS011;5310;48.638;9.060;2022-12-29T17:10:52;0.70;;;0.70;;
10523;SDS011;5310;48.638;9.060;2022-12-29T17:13:37;0.70;;;0.70;;
10523;SDS011;5310;48.638;9.060;2022-12-29T17:16:04;0.70;;;0.70;;
10523;SDS011;5310;48.638;9.060;2022-12-29T17:18:32;0.70;;;0.70;;
10523;SDS011;5310;48.638;9.060;2022-12-29T17:20:58;0.70;;;0.70;;
10523;SDS011;5310;48.638;9.060;2022-12-29T17:23:24;0.70;;;0.70;;
10523;SDS011;5310;48.638;9.060;2022-12-29T17:25:50;0.70;;;0.70;;
10523;SDS011;5310;48.638;9.060;2022-12-29T17:28:24;0.70;;;0.70;;
10523;SDS011;5310;48.638;9.060;2022-12-29T17:30:52;0.70;;;0.70;;
10523;SDS011;5310;48.638;9.060;2022-12-29T17:33:20;0.70;;;0.70;;